Terminal Aerodrome Forecast
Issued by NWS

Current Version | Previous Version | Text Only | Print | Product List | Glossary On
Versions: 1 2 3 4 5 6 7 8 9 10 11 12 13 14 15 16 17 18 19 20 21 22 23 24 25 26
000
FTUS41 KBTV 250539
TAFPBG
TAF
KPBG 250539Z 2506/2606 VRB03KT 5SM BR SKC
      TEMPO 2506/2510 1SM BR SKC
     FM251300 13007KT P6SM SKC
     FM252200 VRB03KT P6SM SKC=

USA.gov is the U.S. government's official web portal to all federal, state and local government web resources and services.